MMCS

Abraham González International Airport

Airport
ICAO code
MMCS
IATA Code
CJS
Summary
ICAO Region
CARSAM
ICAO Territory
Location

Ciudad Juarez, Chihuahua

Serving
Ciudad Juarez
Elevation
3904 ft
Coordinates
31° 38' 10" N , 106° 25' 43" W
KCC
Metar
MMCS 292040Z 16006KT 10SM SKC 34/M10 A3003 RMK SLP053 57024 904

International airport located in Ciudad Juárez, Chihuahua, Mexico, near the Mexico–United States border opposite El Paso, Texas.

Climatology

Cold Desert climate (Köppen climate classification BWk)

Runways

Designator Length Width Surface Rops
14/32 1750 30 ASP No/No
3/21 2700 45 ASP No/No

Airport map

Aerial View

SKYbrary Partners:

Safety knowledge contributed by: